KDNN

Dalton Municipal Airport

Dalton, Georgia, USA
METAR KDNN 230455Z AUTO 00000KT 10SM CLR 05/05 A3027 RMK AO2
Observed Flight Rules
Oct-23 @ 04:55 UTC (22 minutes ago) Visual Flight Rules
Visibility Clouds
10 miles
  • Clear skies
Temperatures Readings
Current 5°C / 41°F
Dewpoint 5°C / 41°F
Humidity 100%
Altimeter 30.27" Hg
Pressure 1025 hPa
Elevation 216
METAR KDNN 230455Z AUTO 00000KT 10SM CLR 05/05 A3027 RMK AO2
Observed Flight Rules
Oct-23 @ 04:55 UTC
(22 minutes ago)
VFR
Clouds
  • Clear skies
Temperature Dewpoint
5°C / 41°F 5°C / 41°F
Humidity Altimeter Pressure
100% 30.27" Hg 1025 hPa